createdAt,value
2023-08-27T00:08:49.574Z,100149.00
2023-08-27T00:25:08.216Z,100164.20
2023-08-27T00:51:20.072Z,100130.10
2023-08-27T01:06:22.572Z,100133.17
2023-08-27T01:21:26.963Z,100136.86
2023-08-27T01:36:30.161Z,100138.45
2023-08-27T01:51:32.495Z,100127.92
2023-08-27T02:06:34.926Z,100143.75
2023-08-27T02:21:37.281Z,100144.16
2023-08-27T02:36:39.657Z,100149.47
2023-08-27T02:51:42.053Z,100140.95
2023-08-27T03:06:44.482Z,100134.61
2023-08-27T03:21:46.962Z,100130.19
2023-08-27T03:59:13.999Z,100167.14
2023-08-27T04:14:44.665Z,100147.73
2023-08-27T04:29:48.342Z,100132.05
2023-08-27T04:46:08.561Z,100119.16
2023-08-27T05:02:29.056Z,100117.65
2023-08-27T05:31:43.532Z,100110.00
2023-08-27T05:56:06.586Z,100122.68
2023-08-27T06:12:26.223Z,100125.90
2023-08-27T06:56:40.388Z,100074.86
2023-08-27T07:11:42.775Z,100058.89
2023-08-27T07:27:10.602Z,100018.30
2023-08-27T07:42:13.040Z,100018.72
2023-08-27T07:57:19.700Z,100038.94
2023-08-27T08:12:24.714Z,100051.67
2023-08-27T08:27:41.809Z,100065.80
2023-08-27T08:43:25.026Z,100071.96
2023-08-27T08:58:35.185Z,100054.23
2023-08-27T09:13:39.050Z,100064.94
2023-08-27T09:28:41.649Z,100061.40
2023-08-27T09:43:54.548Z,100061.55
2023-08-27T10:53:57.259Z,100023.99
2023-08-27T11:32:27.191Z,99992.30
2023-08-27T11:48:22.086Z,99993.92
2023-08-27T12:03:53.312Z,99968.36
2023-08-27T12:19:07.265Z,99956.19
2023-08-27T12:35:24.228Z,99948.16
2023-08-27T12:51:49.889Z,99952.31
2023-08-27T13:24:21.427Z,99935.02
2023-08-27T13:39:24.106Z,99923.48
2023-08-27T13:55:43.304Z,99899.19
2023-08-27T14:25:51.155Z,99899.04
2023-08-27T14:59:34.952Z,99885.50
2023-08-27T15:36:12.433Z,99825.73
2023-08-27T16:03:51.348Z,99822.92
2023-08-27T16:28:10.974Z,99835.42
2023-08-27T16:43:39.495Z,99848.67
2023-08-27T17:16:59.198Z,99851.38
2023-08-27T17:33:43.648Z,99840.73
2023-08-27T17:48:50.033Z,99812.61
2023-08-27T18:03:52.878Z,99811.77
2023-08-27T18:19:20.703Z,99821.27
2023-08-27T18:34:23.268Z,99822.53
2023-08-27T19:08:29.778Z,99833.41
2023-08-27T19:24:58.886Z,99874.38
2023-08-27T20:00:16.722Z,99860.92
2023-08-27T20:15:20.771Z,99864.92
2023-08-27T20:30:40.201Z,99872.33
2023-08-27T21:00:15.107Z,99891.38
2023-08-27T21:39:08.753Z,99887.52
2023-08-27T21:54:12.943Z,99875.80
2023-08-27T22:09:50.411Z,99885.66
2023-08-27T22:24:57.595Z,99892.98
2023-08-27T22:55:22.526Z,99909.23
2023-08-27T23:10:24.914Z,99899.92
2023-08-27T23:25:27.358Z,99920.10
